Time;durP1;ratioP1;P1;durP2;ratioP2;P2;SDS_P1;SDS_P2;PMS_P1;PMS_P2;Temp;Humidity;BMP_temperature;BMP_pressure;BME280_temperature;BME280_humidity;BME280_pressure;Samples;Min_cycle;Max_cycle;Signal;HPM_P1;HPM_P2
2022/03/27 00:01:49;;;;;;;10.90;7.15;;;;;;;11.86;nan;103176.75;5007687;28;20748;-49
2022/03/27 00:04:15;;;;;;;13.40;8.25;;;;;;;11.75;nan;103178.94;5006553;28;20519;-48
2022/03/27 00:06:41;;;;;;;9.73;7.00;;;;;;;11.66;nan;103181.94;5007332;28;20034;-52
2022/03/27 00:09:06;;;;;;;12.95;6.60;;;;;;;11.62;nan;103184.19;5004877;28;20037;-49
2022/03/27 00:11:33;;;;;;;13.90;6.30;;;;;;;11.59;nan;103189.97;5005927;28;20045;-49
2022/03/27 00:14:01;;;;;;;15.15;6.75;;;;;;;11.58;nan;103191.00;5006066;28;20033;-52
2022/03/27 00:16:27;;;;;;;12.00;6.22;;;;;;;11.58;nan;103190.16;5007993;28;20021;-48
2022/03/27 00:18:52;;;;;;;13.55;7.95;;;;;;;11.44;nan;103191.91;5009308;28;20037;-47
2022/03/27 00:21:21;;;;;;;11.70;7.85;;;;;;;11.07;nan;103191.16;5007356;28;20112;-48
2022/03/27 00:23:47;;;;;;;13.07;7.22;;;;;;;10.66;nan;103185.59;5006465;28;20026;-48
2022/03/27 00:26:13;;;;;;;12.82;7.72;;;;;;;10.28;nan;103191.13;5007713;28;20669;-45
2022/03/27 00:28:39;;;;;;;15.80;8.38;;;;;;;9.99;nan;103191.91;5005100;28;20029;-48
2022/03/27 00:31:07;;;;;;;12.95;8.27;;;;;;;9.78;nan;103188.31;5007255;28;20396;-49
2022/03/27 00:33:34;;;;;;;17.63;9.00;;;;;;;9.55;nan;103193.72;5007592;28;20036;-47
2022/03/27 00:36:01;;;;;;;17.20;9.02;;;;;;;9.37;nan;103194.88;5009952;28;20026;-47
2022/03/27 00:38:27;;;;;;;16.25;7.68;;;;;;;9.18;nan;103192.69;5007792;28;20060;-45
2022/03/27 00:40:53;;;;;;;15.07;8.13;;;;;;;9.00;nan;103197.53;5006160;28;20468;-50
2022/03/27 00:43:23;;;;;;;18.08;8.80;;;;;;;8.78;nan;103194.63;5007030;28;20328;-46
2022/03/27 00:45:49;;;;;;;20.20;10.02;;;;;;;8.64;nan;103199.91;5007652;28;20037;-48
2022/03/27 00:48:20;;;;;;;28.92;11.85;;;;;;;8.47;nan;103197.31;5005841;28;20519;-49
2022/03/27 00:50:49;;;;;;;29.98;14.57;;;;;;;8.32;nan;103195.50;5004356;28;20030;-49
2022/03/27 00:53:15;;;;;;;28.02;13.38;;;;;;;8.15;nan;103192.91;5006837;28;20112;-46
2022/03/27 00:55:42;;;;;;;43.65;16.27;;;;;;;7.94;nan;103197.16;5007368;28;20133;-49
2022/03/27 00:58:08;;;;;;;31.50;14.18;;;;;;;7.72;nan;103199.53;5000470;28;20072;-49
2022/03/27 01:00:43;;;;;;;30.92;15.00;;;;;;;7.63;nan;103199.69;5003979;28;20128;-51
2022/03/27 01:03:12;;;;;;;34.00;14.55;;;;;;;7.54;nan;103199.72;5010084;28;20034;-49
2022/03/27 01:05:42;;;;;;;29.85;13.60;;;;;;;7.41;nan;103201.22;5007633;28;20033;-50
2022/03/27 01:08:11;;;;;;;35.38;13.02;;;;;;;7.33;nan;103201.22;5007749;28;20628;-48
2022/03/27 01:10:38;;;;;;;28.00;13.48;;;;;;;7.22;nan;103205.88;5007597;28;20084;-48
2022/03/27 01:13:19;;;;;;;29.52;12.82;;;;;;;7.04;nan;103196.38;5008823;28;20470;-47
2022/03/27 01:15:55;;;;;;;25.15;12.57;;;;;;;6.97;nan;103205.00;5011391;28;20084;-48
2022/03/27 01:18:21;;;;;;;24.05;12.57;;;;;;;6.87;nan;103204.34;5008908;28;20038;-48
2022/03/27 01:20:48;;;;;;;22.83;12.07;;;;;;;6.77;nan;103202.81;5008224;28;20034;-50
2022/03/27 01:23:15;;;;;;;27.92;13.68;;;;;;;6.72;nan;103210.47;5007388;28;20029;-49
2022/03/27 01:25:43;;;;;;;31.48;12.70;;;;;;;6.65;nan;103218.28;5003685;28;20068;-50
2022/03/27 01:28:11;;;;;;;28.65;12.98;;;;;;;6.56;nan;103217.41;5007175;28;20475;-49
2022/03/27 01:30:37;;;;;;;26.98;14.13;;;;;;;6.35;nan;103215.16;5012153;28;20269;-48
2022/03/27 01:33:05;;;;;;;28.88;14.05;;;;;;;6.24;nan;103207.44;5010123;28;20534;-46
2022/03/27 01:35:32;;;;;;;29.75;14.88;;;;;;;6.24;nan;103211.94;5005812;28;20037;-47
2022/03/27 01:37:58;;;;;;;31.88;15.18;;;;;;;6.19;nan;103207.09;5008520;28;20283;-47
2022/03/27 01:40:24;;;;;;;31.52;15.15;;;;;;;6.13;nan;103210.41;5009214;28;20026;-45
2022/03/27 01:42:52;;;;;;;28.40;13.98;;;;;;;6.13;nan;103210.41;5007667;28;20037;-46
2022/03/27 01:45:19;;;;;;;28.33;13.43;;;;;;;6.11;nan;103215.06;5005946;28;20139;-48
2022/03/27 01:47:44;;;;;;;28.08;13.70;;;;;;;6.09;nan;103218.84;5007026;28;20115;-50
2022/03/27 01:50:10;;;;;;;22.58;11.20;;;;;;;6.03;nan;103218.47;5007043;28;20687;-48
2022/03/27 01:52:36;;;;;;;22.75;12.07;;;;;;;6.00;nan;103220.63;5008531;28;20123;-49
2022/03/27 01:55:02;;;;;;;22.33;12.05;;;;;;;5.98;nan;103218.13;5008260;28;20144;-47
2022/03/27 01:57:28;;;;;;;21.40;12.35;;;;;;;5.98;nan;103214.63;5006668;28;20018;-49
2022/03/27 01:59:53;;;;;;;24.30;12.10;;;;;;;5.94;nan;103223.94;5004319;28;20102;-47
2022/03/27 02:02:24;;;;;;;26.98;12.73;;;;;;;5.91;nan;103224.22;5006729;28;20029;-50
2022/03/27 02:04:53;;;;;;;24.40;13.30;;;;;;;5.89;nan;103224.34;5006790;28;20629;-48
2022/03/27 02:07:22;;;;;;;26.27;13.68;;;;;;;5.74;nan;103226.75;5003670;28;20022;-46
2022/03/27 02:09:51;;;;;;;27.55;13.60;;;;;;;5.60;nan;103227.31;5006130;28;20045;-48
2022/03/27 02:12:17;;;;;;;21.95;12.15;;;;;;;5.64;nan;103226.00;5008324;28;20041;-50
2022/03/27 02:14:43;;;;;;;24.45;12.45;;;;;;;5.67;nan;103230.19;5004924;28;20029;-51
2022/03/27 02:17:10;;;;;;;21.63;12.52;;;;;;;5.66;nan;103229.34;5006991;28;20048;-47
2022/03/27 02:19:36;;;;;;;23.55;12.60;;;;;;;5.67;nan;103233.69;5007485;28;20033;-48
2022/03/27 02:22:02;;;;;;;28.33;14.07;;;;;;;5.69;nan;103221.06;5003137;28;20065;-46
2022/03/27 02:24:28;;;;;;;25.95;12.50;;;;;;;5.69;nan;103226.38;5007110;28;20440;-49
2022/03/27 02:26:55;;;;;;;24.52;12.20;;;;;;;5.65;nan;103226.84;5003965;28;20164;-47
2022/03/27 02:29:20;;;;;;;22.75;12.57;;;;;;;5.60;nan;103227.31;5002928;28;20029;-50
2022/03/27 02:31:47;;;;;;;23.98;12.77;;;;;;;5.56;nan;103223.28;5005973;28;20026;-46
2022/03/27 02:34:13;;;;;;;30.05;13.10;;;;;;;5.50;nan;103215.91;5010982;28;20072;-50
2022/03/27 02:36:38;;;;;;;26.08;12.40;;;;;;;5.38;nan;103219.78;5006188;28;20558;-50
2022/03/27 02:39:04;;;;;;;23.95;13.20;;;;;;;5.34;nan;103226.41;5000660;28;20037;-46
2022/03/27 02:41:29;;;;;;;26.65;14.20;;;;;;;5.30;nan;103222.41;5007970;28;20030;-49
2022/03/27 02:43:55;;;;;;;22.95;12.98;;;;;;;5.27;nan;103225.38;5006604;28;20034;-47
2022/03/27 02:46:21;;;;;;;24.55;12.68;;;;;;;5.26;nan;103231.69;5006266;28;20033;-49
2022/03/27 02:48:46;;;;;;;23.80;12.30;;;;;;;5.31;nan;103229.38;5004568;28;20467;-49
2022/03/27 02:51:12;;;;;;;21.45;12.07;;;;;;;5.33;nan;103222.09;5001362;28;20057;-47
2022/03/27 02:53:37;;;;;;;24.08;12.70;;;;;;;5.34;nan;103224.59;5007556;28;21478;-50
2022/03/27 02:56:04;;;;;;;20.77;12.23;;;;;;;5.34;nan;103229.06;5007557;28;20053;-48
2022/03/27 02:58:30;;;;;;;21.80;12.27;;;;;;;5.36;nan;103222.63;5007273;28;20492;-50
2022/03/27 03:00:56;;;;;;;23.13;11.90;;;;;;;5.37;nan;103223.44;5008149;28;20360;-46
2022/03/27 03:03:22;;;;;;;18.20;10.65;;;;;;;5.37;nan;103218.97;5006662;28;20564;-49
2022/03/27 03:05:49;;;;;;;17.85;11.32;;;;;;;5.40;nan;103221.34;5008460;28;20484;-51
2022/03/27 03:08:17;;;;;;;18.15;11.38;;;;;;;5.42;nan;103215.88;5006701;28;20113;-49
2022/03/27 03:10:43;;;;;;;19.85;11.18;;;;;;;5.39;nan;103210.88;4997543;28;20068;-50
2022/03/27 03:13:09;;;;;;;18.70;11.15;;;;;;;5.41;nan;103216.84;4995353;28;20143;-52
2022/03/27 03:15:36;;;;;;;18.88;11.45;;;;;;;5.39;nan;103214.34;4999711;28;20526;-48
2022/03/27 03:18:05;;;;;;;20.02;11.55;;;;;;;5.38;nan;103214.47;5000681;28;21471;-49
2022/03/27 03:20:31;;;;;;;20.85;12.45;;;;;;;5.38;nan;103211.81;5005467;28;20253;-46
2022/03/27 03:22:57;;;;;;;20.75;12.52;;;;;;;5.35;nan;103207.66;5004876;28;20033;-47
2022/03/27 03:25:23;;;;;;;17.73;11.20;;;;;;;5.34;nan;103199.84;5005377;28;20034;-49
2022/03/27 03:27:49;;;;;;;20.73;11.48;;;;;;;5.33;nan;103199.00;5004384;28;20468;-46
2022/03/27 03:30:16;;;;;;;17.73;10.52;;;;;;;5.31;nan;103194.81;4999669;28;20292;-47
2022/03/27 03:32:42;;;;;;;18.40;10.02;;;;;;;5.28;nan;103197.81;5006320;28;20029;-51
2022/03/27 03:35:08;;;;;;;17.73;10.45;;;;;;;5.25;nan;103198.09;5004294;28;20029;-48
2022/03/27 03:37:34;;;;;;;14.38;9.57;;;;;;;5.21;nan;103192.28;5007182;28;20417;-48
2022/03/27 03:39:59;;;;;;;20.80;10.10;;;;;;;5.21;nan;103199.41;5006439;28;20072;-49
2022/03/27 03:42:25;;;;;;;21.23;10.43;;;;;;;5.21;nan;103194.09;5006121;28;20029;-47
2022/03/27 03:44:51;;;;;;;20.48;10.30;;;;;;;5.14;nan;103189.38;5006137;28;20033;-46
2022/03/27 03:47:16;;;;;;;17.90;9.98;;;;;;;5.07;nan;103184.81;5004866;28;20025;-48
2022/03/27 03:49:42;;;;;;;23.17;9.73;;;;;;;4.98;nan;103186.56;5005111;28;20537;-54
2022/03/27 03:52:08;;;;;;;12.77;8.80;;;;;;;4.92;nan;103187.16;5010595;28;20236;-46
2022/03/27 03:54:35;;;;;;;15.45;9.52;;;;;;;4.90;nan;103189.16;5008526;28;20028;-49
2022/03/27 03:57:02;;;;;;;17.48;9.98;;;;;;;4.90;nan;103194.47;5002037;28;20053;-49
2022/03/27 03:59:28;;;;;;;18.73;10.23;;;;;;;4.89;nan;103192.78;5006527;28;20030;-48
2022/03/27 04:01:53;;;;;;;16.08;9.93;;;;;;;4.87;nan;103193.94;5010295;28;20040;-46
2022/03/27 04:04:19;;;;;;;18.50;10.93;;;;;;;4.81;nan;103200.66;5009192;28;20143;-46
2022/03/27 04:06:44;;;;;;;14.95;8.93;;;;;;;4.76;nan;103195.81;5007427;28;20101;-45
2022/03/27 04:09:10;;;;;;;14.57;9.60;;;;;;;4.72;nan;103206.88;5008552;28;20037;-46
2022/03/27 04:11:36;;;;;;;17.67;9.95;;;;;;;4.67;nan;103206.47;5007410;28;20026;-45
2022/03/27 04:14:01;;;;;;;15.23;9.63;;;;;;;4.60;nan;103208.06;5010734;28;20149;-45
2022/03/27 04:16:28;;;;;;;16.05;9.65;;;;;;;4.57;nan;103209.19;5005599;28;20026;-46
2022/03/27 04:18:53;;;;;;;16.58;9.70;;;;;;;4.51;nan;103212.47;5009836;28;20492;-45
2022/03/27 04:21:19;;;;;;;14.85;9.38;;;;;;;4.43;nan;103197.25;5006056;28;20061;-46
2022/03/27 04:23:44;;;;;;;18.30;9.00;;;;;;;4.39;nan;103205.66;5004094;28;20108;-45
2022/03/27 04:26:10;;;;;;;19.20;8.95;;;;;;;4.32;nan;103204.59;5007877;28;20032;-47
2022/03/27 04:28:36;;;;;;;21.25;9.70;;;;;;;4.26;nan;103198.03;5007671;28;20026;-45
2022/03/27 04:31:01;;;;;;;15.00;9.07;;;;;;;4.24;nan;103197.34;5011770;28;20045;-45
2022/03/27 04:33:27;;;;;;;17.83;9.13;;;;;;;4.25;nan;103197.19;5010298;28;20451;-44
2022/03/27 04:35:52;;;;;;;14.88;9.68;;;;;;;4.20;nan;103204.78;5008060;28;20033;-47
2022/03/27 04:38:18;;;;;;;18.05;10.32;;;;;;;4.17;nan;103206.88;5006217;28;20017;-46
2022/03/27 04:40:43;;;;;;;21.67;10.45;;;;;;;4.18;nan;103208.56;5010233;28;20079;-45
2022/03/27 04:43:09;;;;;;;14.00;9.80;;;;;;;4.22;nan;103208.09;5011868;28;20029;-46
2022/03/27 04:45:34;;;;;;;16.63;9.73;;;;;;;4.23;nan;103211.59;5005934;28;20491;-44
2022/03/27 04:48:00;;;;;;;15.70;10.00;;;;;;;4.21;nan;103209.09;5008438;28;20091;-45
2022/03/27 04:50:25;;;;;;;15.00;9.15;;;;;;;4.21;nan;103214.41;5008211;28;20030;-47
2022/03/27 04:52:51;;;;;;;17.48;10.32;;;;;;;4.20;nan;103211.91;5010647;28;20041;-45
2022/03/27 04:55:17;;;;;;;14.50;9.13;;;;;;;4.19;nan;103221.66;5007543;28;20108;-46
2022/03/27 04:57:43;;;;;;;16.13;9.73;;;;;;;4.19;nan;103226.97;5008113;28;20037;-45
2022/03/27 05:00:11;;;;;;;21.30;10.18;;;;;;;4.18;nan;103224.47;5008120;28;20045;-46
2022/03/27 05:02:38;;;;;;;17.83;10.18;;;;;;;4.19;nan;103226.16;5010508;28;20033;-48
2022/03/27 05:05:05;;;;;;;16.13;9.90;;;;;;;4.18;nan;103233.28;5010059;28;20052;-45
2022/03/27 05:07:31;;;;;;;17.20;9.93;;;;;;;4.19;nan;103245.56;5006233;28;20135;-46
2022/03/27 05:09:56;;;;;;;20.58;11.10;;;;;;;4.19;nan;103240.25;5009929;28;20042;-45
2022/03/27 05:12:22;;;;;;;16.65;9.88;;;;;;;4.18;nan;103238.56;5008030;28;20030;-47
2022/03/27 05:14:48;;;;;;;17.65;10.40;;;;;;;4.18;nan;103235.09;5007459;28;20057;-46
2022/03/27 05:17:13;;;;;;;16.38;10.68;;;;;;;4.19;nan;103234.09;5009505;28;20076;-46
2022/03/27 05:19:39;;;;;;;17.65;10.20;;;;;;;4.22;nan;103236.47;5007622;28;20099;-46
2022/03/27 05:22:04;;;;;;;19.17;10.85;;;;;;;4.20;nan;103241.09;5009203;28;20025;-45
2022/03/27 05:24:30;;;;;;;21.45;10.65;;;;;;;4.20;nan;103241.09;5009258;28;20034;-45
2022/03/27 05:26:56;;;;;;;18.05;10.07;;;;;;;4.17;nan;103236.06;5005363;28;20379;-46
2022/03/27 05:29:21;;;;;;;22.90;12.25;;;;;;;4.16;nan;103248.50;5007719;28;20037;-45
2022/03/27 05:31:47;;;;;;;20.25;11.80;;;;;;;4.14;nan;103249.63;5008662;28;20088;-45
2022/03/27 05:34:12;;;;;;;23.95;11.40;;;;;;;4.07;nan;103252.00;5005646;28;20048;-44
2022/03/27 05:36:38;;;;;;;20.08;10.90;;;;;;;4.03;nan;103255.09;5006678;28;20029;-46
2022/03/27 05:39:04;;;;;;;26.20;11.88;;;;;;;3.99;nan;103241.28;5007132;28;20088;-47
2022/03/27 05:41:30;;;;;;;20.58;11.32;;;;;;;3.99;nan;103245.75;5006454;28;20083;-46
2022/03/27 05:43:56;;;;;;;22.08;11.93;;;;;;;4.02;nan;103250.78;5008340;28;20076;-46
2022/03/27 05:46:21;;;;;;;19.10;10.55;;;;;;;4.01;nan;103241.16;5008466;28;20041;-47
2022/03/27 05:48:47;;;;;;;28.23;12.23;;;;;;;4.02;nan;103241.00;5008129;28;20503;-46
2022/03/27 05:51:13;;;;;;;19.90;10.43;;;;;;;4.04;nan;103230.25;5002585;28;20480;-46
2022/03/27 05:53:38;;;;;;;20.48;12.13;;;;;;;4.06;nan;103231.75;5008990;28;20041;-45
2022/03/27 05:56:04;;;;;;;21.65;11.77;;;;;;;4.07;nan;103243.22;5007878;28;20203;-45
2022/03/27 05:58:30;;;;;;;24.75;12.65;;;;;;;4.05;nan;103247.81;5008022;28;20121;-47
2022/03/27 06:00:55;;;;;;;19.58;11.18;;;;;;;4.06;nan;103253.00;5005064;28;20105;-45
2022/03/27 06:03:21;;;;;;;21.33;12.32;;;;;;;4.11;nan;103261.34;5004921;28;20076;-45
2022/03/27 06:05:46;;;;;;;21.48;11.80;;;;;;;4.15;nan;103262.75;5009420;28;20028;-45
2022/03/27 06:08:12;;;;;;;20.35;11.13;;;;;;;4.14;nan;103266.38;5006315;28;20452;-47
2022/03/27 06:10:39;;;;;;;23.35;11.73;;;;;;;4.15;nan;103270.72;5007440;28;20045;-47
2022/03/27 06:13:05;;;;;;;18.08;10.52;;;;;;;4.18;nan;103266.94;5005883;28;21405;-46
2022/03/27 06:15:32;;;;;;;18.55;10.40;;;;;;;4.19;nan;103268.59;5007587;28;20510;-45
2022/03/27 06:17:58;;;;;;;20.25;10.35;;;;;;;4.21;nan;103278.09;5008675;28;20030;-46
2022/03/27 06:20:31;;;;;;;20.15;11.23;;;;;;;4.15;nan;103277.84;5006188;28;20365;-49
2022/03/27 06:22:57;;;;;;;18.45;10.20;;;;;;;4.16;nan;103277.69;5004978;28;20022;-46
2022/03/27 06:25:26;;;;;;;16.77;10.55;;;;;;;4.14;nan;103278.81;5004580;28;20063;-45
2022/03/27 06:27:53;;;;;;;17.10;9.75;;;;;;;4.14;nan;103284.97;5005906;28;20024;-46
2022/03/27 06:30:21;;;;;;;18.42;10.20;;;;;;;4.14;nan;103279.66;5007963;28;20083;-46
2022/03/27 06:32:47;;;;;;;16.48;9.55;;;;;;;4.17;nan;103284.66;5003761;28;20030;-45
2022/03/27 06:35:15;;;;;;;18.05;9.23;;;;;;;4.19;nan;103282.72;5008971;28;20130;-45
2022/03/27 06:37:41;;;;;;;12.95;8.48;;;;;;;4.23;nan;103285.91;5006287;28;20051;-45
2022/03/27 06:40:08;;;;;;;12.45;8.07;;;;;;;4.27;nan;103291.75;5006246;28;20470;-45
2022/03/27 06:42:35;;;;;;;26.50;8.27;;;;;;;4.26;nan;103290.91;5003901;28;20053;-46
2022/03/27 06:45:00;;;;;;;19.35;9.43;;;;;;;4.29;nan;103292.44;5005400;28;20041;-46
2022/03/27 06:47:27;;;;;;;14.68;8.75;;;;;;;4.31;nan;103291.34;5004248;28;20037;-46
2022/03/27 06:49:57;;;;;;;18.88;9.75;;;;;;;4.35;nan;103295.38;5004151;28;20305;-45
2022/03/27 06:52:25;;;;;;;13.13;8.30;;;;;;;4.41;nan;103294.78;5006442;28;20129;-46
2022/03/27 06:54:51;;;;;;;15.65;9.13;;;;;;;4.49;nan;103296.72;5008289;28;20088;-46
2022/03/27 06:57:17;;;;;;;19.75;8.73;;;;;;;4.53;nan;103298.09;5007716;28;20112;-46
2022/03/27 07:05:12;;;;;;;17.75;9.48;;;;;;;4.60;nan;103295.69;5008584;28;20045;-46
2022/03/27 07:07:38;;;;;;;20.52;9.75;;;;;;;4.58;nan;103293.19;5003162;28;20545;-45
2022/03/27 07:10:04;;;;;;;15.63;8.52;;;;;;;4.60;nan;103293.03;5011792;28;20064;-46
2022/03/27 07:12:30;;;;;;;17.48;9.38;;;;;;;4.61;nan;103282.25;5009745;28;20076;-46
2022/03/27 07:14:57;;;;;;;17.85;9.18;;;;;;;4.64;nan;103273.16;5006819;28;20060;-46
2022/03/27 07:17:23;;;;;;;17.13;9.68;;;;;;;4.68;nan;103274.56;5011494;28;20033;-45
2022/03/27 07:19:49;;;;;;;21.77;10.57;;;;;;;4.79;nan;103269.03;5010472;28;20396;-47
2022/03/27 07:22:15;;;;;;;17.00;9.90;;;;;;;4.85;nan;103279.09;5012794;28;20038;-46
2022/03/27 07:24:41;;;;;;;21.13;11.75;;;;;;;4.91;nan;103281.13;5009701;28;20037;-46
2022/03/27 07:27:08;;;;;;;19.60;10.18;;;;;;;4.95;nan;103282.50;5007844;28;20355;-45
2022/03/27 07:29:35;;;;;;;17.80;9.85;;;;;;;5.05;nan;103285.94;5010959;28;20040;-49
2022/03/27 07:32:01;;;;;;;18.00;11.00;;;;;;;5.18;nan;103298.03;5008251;28;20048;-46
2022/03/27 07:34:27;;;;;;;18.50;10.95;;;;;;;5.27;nan;103297.13;5006517;28;20093;-45
2022/03/27 07:36:53;;;;;;;18.20;10.02;;;;;;;5.31;nan;103293.19;5009123;28;20490;-50
2022/03/27 07:39:18;;;;;;;16.83;9.60;;;;;;;5.35;nan;103294.53;5007229;28;20060;-45
2022/03/27 07:41:43;;;;;;;19.48;10.57;;;;;;;5.41;nan;103291.31;5007301;28;20029;-45
2022/03/27 07:44:09;;;;;;;20.42;11.75;;;;;;;5.55;nan;103303.22;5009060;28;20029;-45
2022/03/27 07:46:35;;;;;;;19.10;9.93;;;;;;;5.71;nan;103301.53;5011262;28;20495;-45
2022/03/27 07:49:01;;;;;;;18.90;10.27;;;;;;;5.89;nan;103300.66;5007178;28;20387;-48
2022/03/27 07:51:26;;;;;;;16.40;10.48;;;;;;;6.06;nan;103292.69;5014812;28;20056;-45
2022/03/27 07:53:52;;;;;;;17.65;10.00;;;;;;;6.21;nan;103292.94;5010509;28;20067;-46
2022/03/27 07:56:19;;;;;;;18.65;10.77;;;;;;;6.34;nan;103292.53;5009298;28;20025;-46
2022/03/27 07:58:45;;;;;;;20.27;11.05;;;;;;;6.50;nan;103286.47;5006460;28;20041;-45
2022/03/27 08:01:14;;;;;;;19.98;9.75;;;;;;;6.63;nan;103292.16;5004450;28;20027;-45
2022/03/27 08:03:41;;;;;;;17.08;9.75;;;;;;;6.76;nan;103289.91;5008441;28;20025;-45
2022/03/27 08:06:07;;;;;;;18.27;9.55;;;;;;;6.91;nan;103293.63;5006366;28;20026;-45
2022/03/27 08:08:33;;;;;;;20.83;11.13;;;;;;;7.03;nan;103282.66;5008130;28;20026;-46
2022/03/27 08:10:58;;;;;;;16.77;9.15;;;;;;;7.19;nan;103285.38;5009119;28;20043;-46
2022/03/27 08:13:24;;;;;;;20.73;10.10;;;;;;;7.31;nan;103281.38;5011131;28;20018;-47
2022/03/27 08:15:49;;;;;;;18.25;10.20;;;;;;;7.43;nan;103277.41;5008756;28;20059;-45
2022/03/27 08:18:15;;;;;;;19.40;9.50;;;;;;;7.52;nan;103280.91;5009621;28;20083;-47
2022/03/27 08:20:41;;;;;;;21.38;10.48;;;;;;;7.66;nan;103287.41;5006986;28;20034;-46
2022/03/27 08:23:07;;;;;;;18.33;9.95;;;;;;;7.83;nan;103273.91;5008592;28;20533;-46
2022/03/27 08:28:20;;;;;;;15.20;9.13;;;;;;;8.08;nan;103256.03;5008027;28;20036;-49
2022/03/27 08:30:49;;;;;;;16.92;9.30;;;;;;;8.23;nan;103261.47;5009809;28;20037;-47
2022/03/27 08:33:16;;;;;;;17.88;9.90;;;;;;;8.39;nan;103255.28;5011377;28;20422;-46
2022/03/27 08:35:43;;;;;;;14.32;8.60;;;;;;;8.52;nan;103255.56;5009184;28;20476;-47
2022/03/27 08:38:13;;;;;;;18.08;9.65;;;;;;;8.62;nan;103255.38;5003264;28;20067;-48
2022/03/27 08:40:40;;;;;;;19.95;10.00;;;;;;;8.77;nan;103265.13;5008268;28;20030;-47
2022/03/27 08:43:14;;;;;;;20.70;11.68;;;;;;;8.90;nan;103256.56;5008126;28;20487;-45
2022/03/27 08:45:41;;;;;;;16.67;9.70;;;;;;;9.09;nan;103258.78;5009049;28;20105;-47
2022/03/27 08:48:07;;;;;;;18.63;9.35;;;;;;;9.26;nan;103247.97;5008804;28;20025;-47
2022/03/27 08:51:03;;;;;;;17.88;8.93;;;;;;;9.38;nan;103247.38;5010502;28;20177;-46
2022/03/27 08:53:48;;;;;;;16.13;8.27;;;;;;;9.57;nan;103243.38;5010286;28;20033;-49
2022/03/27 08:56:15;;;;;;;16.88;9.63;;;;;;;9.71;nan;103240.94;5005308;28;20296;-46
2022/03/27 08:58:42;;;;;;;17.50;8.95;;;;;;;9.80;nan;103237.16;5003511;28;20073;-47
2022/03/27 09:01:08;;;;;;;18.88;9.05;;;;;;;9.92;nan;103241.88;5008079;28;20120;-46
2022/03/27 09:03:34;;;;;;;18.15;9.30;;;;;;;10.05;nan;103229.69;5010273;28;20026;-47
2022/03/27 09:06:01;;;;;;;18.88;9.52;;;;;;;10.22;nan;103234.72;5006111;28;20036;-47
2022/03/27 09:08:31;;;;;;;17.13;8.73;;;;;;;10.41;nan;103243.19;5003268;28;20323;-46
2022/03/27 09:10:58;;;;;;;18.23;8.98;;;;;;;10.51;nan;103247.28;5004591;28;20037;-45
2022/03/27 09:13:24;;;;;;;19.42;9.63;;;;;;;10.59;nan;103233.78;5008253;28;20045;-48
2022/03/27 09:16:05;;;;;;;17.23;9.13;;;;;;;10.64;nan;103240.41;5006550;28;20033;-45
2022/03/27 09:18:52;;;;;;;16.70;8.77;;;;;;;10.73;nan;103236.59;5007736;28;20028;-46
2022/03/27 09:21:20;;;;;;;15.88;9.48;;;;;;;10.90;nan;103238.03;5005787;28;20033;-45
2022/03/27 09:23:52;;;;;;;18.77;10.00;;;;;;;11.02;nan;103236.53;5003858;28;20033;-48
2022/03/27 09:26:17;;;;;;;18.17;9.88;;;;;;;11.13;nan;103225.31;5009909;28;20534;-46
2022/03/27 09:28:47;;;;;;;16.52;9.88;;;;;;;11.23;nan;103214.22;5002177;28;20022;-46
2022/03/27 09:31:19;;;;;;;22.02;11.35;;;;;;;11.34;nan;103212.91;5003318;28;20030;-47
2022/03/27 09:34:11;;;;;;;16.98;9.80;;;;;;;11.43;nan;103206.34;5005621;28;20618;-46
2022/03/27 09:36:42;;;;;;;17.48;10.38;;;;;;;11.61;nan;103198.66;5003792;28;20053;-46
2022/03/27 09:39:17;;;;;;;17.30;10.55;;;;;;;11.73;nan;103207.00;5005340;28;20098;-46
2022/03/27 09:41:43;;;;;;;18.05;10.05;;;;;;;11.79;nan;103196.34;5006616;28;20042;-46
2022/03/27 09:44:08;;;;;;;16.08;9.98;;;;;;;11.92;nan;103194.78;5008364;28;20523;-48
2022/03/27 09:46:57;;;;;;;16.67;9.57;;;;;;;12.03;nan;103199.59;5001836;28;20415;-48
2022/03/27 09:49:25;;;;;;;16.60;9.32;;;;;;;12.22;nan;103204.25;5004758;28;20102;-48
2022/03/27 09:52:01;;;;;;;17.40;9.27;;;;;;;12.31;nan;103189.59;5002885;28;20077;-46
2022/03/27 09:54:28;;;;;;;15.25;8.73;;;;;;;12.46;nan;103188.63;5004083;28;20342;-46
2022/03/27 09:56:54;;;;;;;14.02;9.18;;;;;;;12.56;nan;103186.38;5005469;28;20029;-48
2022/03/27 09:59:27;;;;;;;15.60;9.38;;;;;;;12.67;nan;103191.19;5005451;28;20033;-47
2022/03/27 10:01:52;;;;;;;16.83;9.15;;;;;;;12.78;nan;103187.91;5005566;28;20029;-49
2022/03/27 10:04:18;;;;;;;15.02;9.13;;;;;;;12.92;nan;103178.81;5001864;28;20021;-48
2022/03/27 10:06:45;;;;;;;15.65;9.40;;;;;;;13.06;nan;103176.16;4996941;28;20393;-51
2022/03/27 10:09:12;;;;;;;15.98;9.70;;;;;;;13.15;nan;103185.69;5001514;28;20029;-51
2022/03/27 10:11:41;;;;;;;15.98;9.32;;;;;;;13.23;nan;103180.13;5002766;28;20185;-50
2022/03/27 10:14:08;;;;;;;12.02;8.15;;;;;;;13.39;nan;103171.63;5008221;28;20034;-48
2022/03/27 10:16:36;;;;;;;13.52;9.18;;;;;;;13.50;nan;103172.88;5003141;28;20053;-48
2022/03/27 10:19:23;;;;;;;14.15;9.60;;;;;;;13.52;nan;103160.88;5005647;28;20029;-51
2022/03/27 10:21:52;;;;;;;16.25;10.15;;;;;;;13.71;nan;103166.44;5003986;28;21004;-47
2022/03/27 10:24:19;;;;;;;14.35;9.27;;;;;;;13.81;nan;103167.63;4999961;28;20071;-49
2022/03/27 10:26:47;;;;;;;13.45;8.88;;;;;;;13.91;nan;103165.34;5007079;28;20736;-46
2022/03/27 10:29:14;;;;;;;14.05;8.75;;;;;;;14.01;nan;103154.13;5007448;28;20095;-47
2022/03/27 10:31:40;;;;;;;14.07;8.63;;;;;;;14.07;nan;103152.44;5002052;28;21974;-48
2022/03/27 10:34:13;;;;;;;14.60;8.50;;;;;;;14.16;nan;103146.59;5003448;28;20092;-47
2022/03/27 10:37:04;;;;;;;14.93;9.40;;;;;;;14.32;nan;103147.16;5005543;28;20057;-47
2022/03/27 10:39:44;;;;;;;13.77;9.40;;;;;;;14.50;nan;103148.13;5005102;28;20030;-47
2022/03/27 10:42:45;;;;;;;15.23;8.85;;;;;;;14.62;nan;103142.06;5000676;28;20479;-47
2022/03/27 10:45:19;;;;;;;12.10;8.90;;;;;;;14.69;nan;103145.53;5007721;28;20069;-48
2022/03/27 10:48:15;;;;;;;16.38;9.18;;;;;;;14.71;nan;103143.44;5007101;28;20419;-48
2022/03/27 10:50:48;;;;;;;15.23;9.40;;;;;;;14.79;nan;103135.09;5011405;28;20064;-47
2022/03/27 10:53:15;;;;;;;13.05;8.63;;;;;;;14.93;nan;103138.53;5006608;28;20025;-46
2022/03/27 10:55:46;;;;;;;15.80;10.95;;;;;;;14.99;nan;103134.94;5007116;28;20042;-47
2022/03/27 10:58:41;;;;;;;15.82;10.57;;;;;;;15.06;nan;103133.84;5007106;28;20013;-47
2022/03/27 11:01:30;;;;;;;13.45;8.80;;;;;;;15.23;nan;103123.31;5009753;28;20069;-44
2022/03/27 11:04:20;;;;;;;13.75;9.15;;;;;;;15.34;nan;103117.19;5007868;28;20111;-46
2022/03/27 11:06:51;;;;;;;12.95;8.07;;;;;;;15.45;nan;103104.00;5006613;28;20065;-46
2022/03/27 11:09:38;;;;;;;11.40;8.07;;;;;;;15.50;nan;103107.69;5006522;28;20072;-47
2022/03/27 11:12:31;;;;;;;12.10;7.88;;;;;;;15.64;nan;103100.31;5008063;28;20081;-48
2022/03/27 11:15:06;;;;;;;12.50;7.57;;;;;;;15.82;nan;103097.59;5010085;28;20038;-48
2022/03/27 11:17:33;;;;;;;7.50;5.85;;;;;;;15.96;nan;103104.47;5005095;28;20381;-47
2022/03/27 11:19:59;;;;;;;8.07;5.78;;;;;;;16.06;nan;103097.72;5006723;28;20029;-47
2022/03/27 11:22:51;;;;;;;9.65;5.38;;;;;;;15.94;nan;103095.78;5010023;28;20298;-47
2022/03/27 11:25:45;;;;;;;7.05;5.68;;;;;;;16.01;nan;103095.72;5010877;28;20491;-48
2022/03/27 11:28:23;;;;;;;8.43;5.30;;;;;;;16.09;nan;103097.25;5010307;28;20029;-47
2022/03/27 11:30:48;;;;;;;6.40;5.00;;;;;;;16.20;nan;103093.81;5006550;28;20034;-49
2022/03/27 11:33:20;;;;;;;7.47;5.05;;;;;;;16.27;nan;103089.09;5008452;28;20392;-47
2022/03/27 11:36:04;;;;;;;8.63;5.10;;;;;;;16.39;nan;103075.63;5009705;28;20034;-47
2022/03/27 11:38:51;;;;;;;7.00;4.70;;;;;;;16.56;nan;103077.47;5009050;28;20166;-46
2022/03/27 11:41:44;;;;;;;9.25;4.95;;;;;;;16.76;nan;103066.34;5007816;28;20357;-47
2022/03/27 11:44:23;;;;;;;6.70;4.72;;;;;;;16.89;nan;103063.44;5007022;28;20061;-46
2022/03/27 11:46:54;;;;;;;6.32;4.57;;;;;;;17.08;nan;103057.91;5009913;28;20124;-47
2022/03/27 11:49:22;;;;;;;5.85;4.20;;;;;;;17.28;nan;103052.13;5005268;28;20057;-46
2022/03/27 11:52:02;;;;;;;5.60;3.75;;;;;;;17.44;nan;103045.97;5011046;28;20026;-46